Artesian, Iowa
Current Conditions -  °F | °C
As of 2:54 AM on Monday 24 Nov 2014 (Local Time) from KALO Reporting Station
Light Snow Light Snow  
Wind Chill: 17°   Ceiling: 1200
Heat Index: 30°   Visibility: 7mi
Dew Point: 28°   Wind: 23mph
Humidity: 92%   Direction: 310°NW
Pressure: 29.28"   Gusts: 32mph
Location:  42.787°N, 92.4284°W
Report Text: KALO 240854Z AUTO 31020G28KT 7SM -SN BKN012 OVC018 M01/M02 A2928 RMK AO2 PK WND 30029/0823 SLP921 P0002 60018 T10111022 53007 $
Loading
Personal Weather Stations






























Interactive Weather Map New forecast layout! Learn more

10-Day Weather Forecast

Advertisements
Track Severe Weather on mobile